Time;durP1;ratioP1;P1;durP2;ratioP2;P2;SDS_P1;SDS_P2;PMS_P1;PMS_P2;Temp;Humidity;BMP_temperature;BMP_pressure;BME280_temperature;BME280_humidity;BME280_pressure;Samples;Min_cycle;Max_cycle;Signal;HPM_P1;HPM_P2
2023/01/01 00:00:59;;;;;;;25.73;15.23;;;;;;;6.31;100.00;98646.59;5140302;28;20047;-62
2023/01/01 00:03:26;;;;;;;27.48;14.80;;;;;;;6.21;100.00;98647.91;5139955;28;20111;-64
2023/01/01 00:05:52;;;;;;;30.38;15.57;;;;;;;6.32;100.00;98638.06;5140217;28;20079;-62
2023/01/01 00:08:18;;;;;;;26.75;15.93;;;;;;;6.31;100.00;98639.22;5139931;28;20069;-64
2023/01/01 00:10:44;;;;;;;30.02;15.68;;;;;;;6.40;100.00;98646.41;5140282;27;20047;-61
2023/01/01 00:13:15;;;;;;;26.80;16.45;;;;;;;6.58;100.00;98667.53;5139839;28;20143;-62
2023/01/01 00:15:41;;;;;;;27.45;15.52;;;;;;;6.36;100.00;98668.94;5140188;28;20142;-64
2023/01/01 00:18:07;;;;;;;25.55;13.90;;;;;;;6.62;100.00;98669.56;5139881;28;20069;-62
2023/01/01 00:20:34;;;;;;;26.90;15.90;;;;;;;6.56;100.00;98669.00;5139806;27;20059;-62
2023/01/01 00:23:03;;;;;;;26.33;15.07;;;;;;;6.34;100.00;98686.75;5139760;28;20408;-64
2023/01/01 00:25:31;;;;;;;22.77;14.00;;;;;;;6.43;100.00;98681.94;5140173;28;20100;-62
2023/01/01 00:27:57;;;;;;;26.15;15.65;;;;;;;6.60;100.00;98676.16;5139941;28;20369;-64
2023/01/01 00:30:24;;;;;;;27.05;15.32;;;;;;;6.63;100.00;98673.84;5139606;28;20433;-63
2023/01/01 00:32:50;;;;;;;28.38;15.02;;;;;;;6.44;100.00;98680.78;5139800;28;20073;-62
2023/01/01 00:35:17;;;;;;;25.58;14.38;;;;;;;6.36;100.00;98658.03;5139556;28;20062;-64
2023/01/01 00:37:44;;;;;;;24.17;15.48;;;;;;;6.25;100.00;98640.59;5139836;28;20061;-63
2023/01/01 00:40:11;;;;;;;25.42;15.60;;;;;;;6.36;100.00;98619.91;5139374;28;20058;-64
2023/01/01 00:42:40;;;;;;;27.73;14.20;;;;;;;6.47;100.00;98611.22;5139893;28;20043;-63
2023/01/01 00:45:10;;;;;;;26.73;13.93;;;;;;;6.50;100.00;98611.31;5139482;28;20283;-62
2023/01/01 00:47:38;;;;;;;24.70;13.95;;;;;;;6.52;100.00;98625.34;5139837;28;20083;-63
2023/01/01 00:50:05;;;;;;;22.02;13.68;;;;;;;6.47;100.00;98627.56;5139290;28;20058;-62
2023/01/01 00:52:31;;;;;;;21.02;14.25;;;;;;;6.36;100.00;98621.81;5139700;27;20047;-64
2023/01/01 00:54:59;;;;;;;21.60;13.15;;;;;;;6.53;100.00;98588.84;5139532;28;20126;-63
2023/01/01 00:57:25;;;;;;;23.63;13.88;;;;;;;6.74;100.00;98591.28;5139152;28;20062;-64
2023/01/01 00:59:51;;;;;;;23.05;12.90;;;;;;;6.68;100.00;98592.69;5139389;28;20081;-62
2023/01/01 01:02:17;;;;;;;24.55;11.77;;;;;;;6.53;100.00;98582.56;5138984;28;20043;-63
2023/01/01 01:04:44;;;;;;;18.98;12.60;;;;;;;6.53;100.00;98574.41;5139468;28;20051;-62
2023/01/01 01:07:10;;;;;;;22.77;12.43;;;;;;;6.47;100.00;98576.63;5139015;28;20332;-63
2023/01/01 01:09:36;;;;;;;20.23;12.18;;;;;;;6.58;100.00;98566.75;5139217;27;20137;-64
2023/01/01 01:12:03;;;;;;;21.48;13.15;;;;;;;6.51;100.00;98558.44;5139034;28;20253;-62
2023/01/01 01:14:30;;;;;;;20.65;12.30;;;;;;;6.49;100.00;98529.97;5139326;28;20312;-64
2023/01/01 01:16:56;;;;;;;18.90;11.98;;;;;;;6.67;100.00;98522.22;5138853;28;20058;-65
2023/01/01 01:19:24;;;;;;;21.95;11.95;;;;;;;6.54;100.00;98529.69;5138698;28;20047;-63
2023/01/01 01:21:51;;;;;;;18.90;10.88;;;;;;;6.43;100.00;98518.56;5138733;28;20062;-64
2023/01/01 01:24:18;;;;;;;18.40;10.63;;;;;;;6.36;100.00;98512.94;5139028;28;20153;-63
2023/01/01 01:26:44;;;;;;;19.08;11.05;;;;;;;6.36;100.00;98493.88;5138735;28;20050;-62
2023/01/01 01:29:11;;;;;;;18.50;10.45;;;;;;;6.39;100.00;98492.38;5138984;28;20371;-63
2023/01/01 01:31:38;;;;;;;18.33;9.63;;;;;;;6.39;100.00;98493.16;5138174;27;20047;-64
2023/01/01 01:34:04;;;;;;;18.98;10.52;;;;;;;6.52;100.00;98496.56;5138696;28;20139;-63
2023/01/01 01:36:30;;;;;;;16.15;10.63;;;;;;;6.62;100.00;98506.94;5138830;28;20453;-63
2023/01/01 01:38:57;;;;;;;23.23;11.82;;;;;;;6.61;100.00;98510.81;5138579;28;20057;-64
2023/01/01 01:41:25;;;;;;;19.95;12.63;;;;;;;6.75;100.00;98526.69;5138803;28;20090;-62
2023/01/01 01:43:54;;;;;;;21.98;11.98;;;;;;;6.52;100.00;98538.22;5138504;28;20051;-65
2023/01/01 01:46:27;;;;;;;21.17;12.18;;;;;;;6.76;100.00;98542.66;5138827;28;20049;-64
2023/01/01 01:48:56;;;;;;;18.10;10.60;;;;;;;6.84;100.00;98566.22;5138328;28;20058;-62
2023/01/01 01:51:28;;;;;;;24.67;13.32;;;;;;;6.33;100.00;98577.06;5138311;28;20051;-62
2023/01/01 01:53:57;;;;;;;23.88;13.45;;;;;;;6.59;100.00;98548.47;5138376;28;20047;-63
2023/01/01 01:56:29;;;;;;;21.60;13.30;;;;;;;6.71;100.00;98553.06;5138373;28;20078;-64
2023/01/01 01:58:55;;;;;;;22.85;12.77;;;;;;;6.34;100.00;98558.78;5138521;28;20057;-64
2023/01/01 02:01:23;;;;;;;23.38;12.60;;;;;;;6.53;100.00;98556.16;5138041;28;20042;-62
2023/01/01 02:03:56;;;;;;;20.48;13.63;;;;;;;6.62;100.00;98555.16;5138450;28;20086;-64
2023/01/01 02:06:24;;;;;;;23.77;14.05;;;;;;;6.70;100.00;98554.19;5138151;28;20054;-64
2023/01/01 02:08:50;;;;;;;22.83;12.57;;;;;;;6.68;100.00;98570.09;5138487;28;20043;-64
2023/01/01 02:11:17;;;;;;;23.50;12.30;;;;;;;6.45;100.00;98567.22;5137956;27;20078;-64
2023/01/01 02:13:43;;;;;;;17.25;12.05;;;;;;;6.66;100.00;98545.91;5137896;28;20424;-62
2023/01/01 02:16:15;;;;;;;18.02;11.52;;;;;;;6.34;100.00;98531.56;5137995;28;20046;-63
2023/01/01 02:18:49;;;;;;;19.63;11.40;;;;;;;6.46;100.00;98522.50;5138044;28;20078;-64
2023/01/01 02:21:21;;;;;;;19.58;11.73;;;;;;;6.35;100.00;98512.13;5138218;28;20043;-63
2023/01/01 02:24:08;;;;;;;19.30;11.98;;;;;;;6.58;100.00;98512.28;5137916;28;20051;-63
2023/01/01 02:26:51;;;;;;;17.60;10.95;;;;;;;6.58;100.00;98528.63;5138255;28;20346;-62
2023/01/01 02:29:32;;;;;;;20.23;10.88;;;;;;;6.78;100.00;98550.50;5137717;28;20055;-62
2023/01/01 02:32:02;;;;;;;22.10;12.27;;;;;;;6.77;100.00;98543.47;5137683;28;20086;-62
2023/01/01 02:34:34;;;;;;;18.08;11.02;;;;;;;6.90;100.00;98561.28;5138001;28;20129;-64
2023/01/01 02:37:04;;;;;;;25.75;11.48;;;;;;;6.87;100.00;98591.19;5137750;28;20139;-64
2023/01/01 02:39:34;;;;;;;20.83;11.27;;;;;;;6.82;100.00;98603.13;5137748;28;20138;-63
2023/01/01 02:42:04;;;;;;;21.85;11.95;;;;;;;6.57;100.00;98600.59;5137536;28;20047;-63
2023/01/01 02:44:35;;;;;;;20.45;11.85;;;;;;;6.79;100.00;98573.84;5137852;27;20431;-63
2023/01/01 02:47:09;;;;;;;19.98;11.73;;;;;;;6.73;100.00;98567.91;5137441;28;20095;-63
2023/01/01 02:49:40;;;;;;;16.63;10.80;;;;;;;6.83;100.00;98555.66;5137927;28;20111;-62
2023/01/01 02:52:10;;;;;;;22.00;12.20;;;;;;;6.65;100.00;98551.75;5137652;28;20047;-64
2023/01/01 02:54:46;;;;;;;20.17;11.13;;;;;;;6.82;100.00;98543.19;5137343;28;20138;-63
2023/01/01 02:57:23;;;;;;;22.58;12.95;;;;;;;6.89;100.00;98534.38;5137639;27;20111;-63
2023/01/01 03:00:26;;;;;;;21.50;12.50;;;;;;;6.86;100.00;98545.97;5137215;28;20458;-62
2023/01/01 03:03:10;;;;;;;20.95;12.05;;;;;;;7.00;100.00;98543.59;5137694;28;20051;-64
2023/01/01 03:08:33;;;;;;;20.90;12.38;;;;;;;6.99;100.00;98526.44;5136291;28;20370;-64
2023/01/01 03:11:04;;;;;;;21.67;12.93;;;;;;;6.90;100.00;98531.31;5137532;28;20051;-63
2023/01/01 03:13:39;;;;;;;25.65;13.48;;;;;;;6.87;100.00;98550.31;5137225;28;20047;-64
2023/01/01 03:16:14;;;;;;;19.58;11.88;;;;;;;7.19;100.00;98537.34;5137531;28;20057;-64
2023/01/01 03:18:48;;;;;;;30.52;13.15;;;;;;;6.69;100.00;98544.44;5137208;28;20051;-62
2023/01/01 03:21:18;;;;;;;24.52;12.85;;;;;;;6.87;100.00;98542.13;5136982;28;20058;-64
2023/01/01 03:23:53;;;;;;;21.80;12.55;;;;;;;6.74;100.00;98523.16;5137289;28;20051;-63
2023/01/01 03:26:22;;;;;;;21.65;12.65;;;;;;;6.91;100.00;98519.25;5137020;28;20055;-63
2023/01/01 03:28:54;;;;;;;23.73;12.30;;;;;;;6.90;100.00;98522.31;5137116;27;20441;-63
2023/01/01 03:31:25;;;;;;;18.15;11.65;;;;;;;6.90;100.00;98539.47;5136827;28;20066;-62
2023/01/01 03:33:56;;;;;;;19.45;11.95;;;;;;;6.85;100.00;98542.47;5137231;27;20059;-62
2023/01/01 03:36:27;;;;;;;23.58;11.95;;;;;;;6.76;100.00;98550.81;5136875;28;20214;-63
2023/01/01 03:39:01;;;;;;;19.45;11.32;;;;;;;6.75;100.00;98543.81;5137259;28;20051;-62
2023/01/01 03:41:35;;;;;;;18.90;11.15;;;;;;;6.82;100.00;98535.00;5136798;28;20055;-62
2023/01/01 03:44:06;;;;;;;21.25;11.63;;;;;;;6.93;100.00;98511.53;5136994;28;20331;-63
2023/01/01 03:46:35;;;;;;;19.70;12.30;;;;;;;6.97;100.00;98517.84;5137050;28;20396;-63
2023/01/01 03:49:03;;;;;;;17.10;11.07;;;;;;;6.86;100.00;98516.78;5136701;28;20062;-64
2023/01/01 03:51:48;;;;;;;19.02;12.00;;;;;;;7.06;100.00;98507.53;5137022;28;20047;-64
2023/01/01 03:54:24;;;;;;;21.70;11.75;;;;;;;7.10;100.00;98496.69;5136585;28;20146;-62
2023/01/01 03:56:58;;;;;;;24.20;11.85;;;;;;;6.97;100.00;98492.53;5140117;28;20054;-63
2023/01/01 03:59:32;;;;;;;20.27;10.88;;;;;;;6.77;100.00;98502.59;5140046;28;20385;-63
2023/01/01 04:02:03;;;;;;;19.25;11.10;;;;;;;6.76;100.00;98492.84;5139983;28;20058;-63
2023/01/01 04:04:30;;;;;;;23.83;11.48;;;;;;;6.80;100.00;98501.91;5140390;28;20082;-62
2023/01/01 04:06:57;;;;;;;22.80;11.68;;;;;;;6.80;100.00;98483.59;5139992;28;20051;-62
2023/01/01 04:09:29;;;;;;;18.08;11.45;;;;;;;6.87;100.00;98487.63;5140299;28;20055;-63
2023/01/01 04:12:00;;;;;;;22.70;12.43;;;;;;;7.14;100.00;98492.09;5139841;28;20419;-62
2023/01/01 04:14:28;;;;;;;19.63;11.13;;;;;;;6.85;100.00;98507.06;5140182;27;20053;-64
2023/01/01 04:16:55;;;;;;;23.42;12.43;;;;;;;7.01;100.00;98499.63;5139902;28;20055;-63
2023/01/01 04:19:22;;;;;;;21.05;12.40;;;;;;;7.19;100.00;98502.69;5140162;28;20347;-62
2023/01/01 04:21:48;;;;;;;16.70;11.18;;;;;;;7.02;100.00;98500.41;5139717;28;20047;-64
2023/01/01 04:24:14;;;;;;;15.38;10.25;;;;;;;6.91;100.00;98492.00;5139704;28;20051;-62
2023/01/01 04:26:41;;;;;;;21.63;12.00;;;;;;;7.04;100.00;98500.84;5139789;28;20065;-64
2023/01/01 04:29:07;;;;;;;26.58;11.90;;;;;;;7.09;100.00;98506.00;5139894;28;20055;-62
2023/01/01 04:31:34;;;;;;;20.35;11.25;;;;;;;6.99;100.00;98488.28;5139919;28;20055;-64
2023/01/01 04:34:00;;;;;;;19.15;10.55;;;;;;;6.90;100.00;98486.91;5139719;28;20051;-64
2023/01/01 04:36:27;;;;;;;18.77;10.23;;;;;;;6.97;100.00;98485.13;5139957;28;20162;-62
2023/01/01 04:38:53;;;;;;;16.67;10.75;;;;;;;6.92;100.00;98473.72;5139446;28;20077;-64
2023/01/01 04:41:19;;;;;;;25.10;11.70;;;;;;;6.75;100.00;98464.03;5139685;28;20050;-62
2023/01/01 04:43:49;;;;;;;19.05;12.38;;;;;;;6.88;100.00;98451.84;5139369;28;20138;-64
2023/01/01 04:46:16;;;;;;;26.98;11.18;;;;;;;6.78;100.00;98452.41;5139873;27;20047;-62
2023/01/01 04:48:42;;;;;;;21.75;11.43;;;;;;;6.85;100.00;98447.13;5139398;28;20083;-63
2023/01/01 04:51:10;;;;;;;20.27;10.57;;;;;;;6.88;100.00;98440.94;5139769;28;20077;-61
2023/01/01 04:53:37;;;;;;;19.35;10.70;;;;;;;6.92;100.00;98435.56;5139263;28;20103;-62
2023/01/01 04:56:04;;;;;;;20.48;10.57;;;;;;;7.04;100.00;98430.78;5139144;28;20502;-64
2023/01/01 04:58:30;;;;;;;18.23;10.65;;;;;;;6.73;100.00;98444.50;5139524;28;20055;-63
2023/01/01 05:00:57;;;;;;;31.45;11.70;;;;;;;7.03;100.00;98439.28;5138999;28;20076;-62
2023/01/01 05:03:23;;;;;;;16.83;9.95;;;;;;;6.83;100.00;98446.66;5139218;28;20144;-62
2023/01/01 05:05:59;;;;;;;17.70;10.10;;;;;;;6.89;100.00;98430.84;5139046;28;20047;-64
2023/01/01 05:08:27;;;;;;;19.92;11.27;;;;;;;7.15;100.00;98436.44;5138385;27;20353;-61
2023/01/01 05:10:59;;;;;;;20.30;9.93;;;;;;;7.13;100.00;98438.75;5139075;28;20059;-62
2023/01/01 05:13:25;;;;;;;16.30;9.40;;;;;;;6.99;100.00;98436.50;5139377;28;20100;-62
2023/01/01 05:15:51;;;;;;;19.60;10.18;;;;;;;7.27;100.00;98440.94;5138857;28;20099;-64
2023/01/01 05:18:18;;;;;;;19.02;9.90;;;;;;;7.35;100.00;98439.94;5139066;28;20320;-62
2023/01/01 05:20:44;;;;;;;17.40;10.38;;;;;;;7.20;100.00;98454.44;5138887;28;20047;-63
2023/01/01 05:23:10;;;;;;;19.33;10.45;;;;;;;7.32;100.00;98455.06;5138682;28;20088;-62
2023/01/01 05:25:36;;;;;;;24.85;9.88;;;;;;;7.29;100.00;98463.19;5138792;28;20097;-64
2023/01/01 05:28:03;;;;;;;15.13;9.00;;;;;;;7.19;100.00;98448.19;5138824;28;20051;-62
2023/01/01 05:30:30;;;;;;;19.63;9.57;;;;;;;7.32;100.00;98468.69;5139137;28;20211;-64
2023/01/01 05:32:56;;;;;;;17.50;9.45;;;;;;;7.30;100.00;98467.50;5138512;28;20097;-62
2023/01/01 05:35:23;;;;;;;16.48;9.18;;;;;;;7.16;100.00;98459.81;5138909;28;20074;-65
2023/01/01 05:37:50;;;;;;;14.38;8.73;;;;;;;7.24;100.00;98441.66;5138568;28;20051;-61
2023/01/01 05:40:17;;;;;;;17.08;9.00;;;;;;;7.34;100.00;98471.06;5138799;28;20054;-62
2023/01/01 05:42:45;;;;;;;13.98;8.75;;;;;;;7.29;100.00;98474.88;5138500;28;20051;-64
2023/01/01 05:45:12;;;;;;;15.00;8.45;;;;;;;7.53;100.00;98472.97;5138482;28;20047;-62
2023/01/01 05:47:38;;;;;;;14.93;8.65;;;;;;;7.48;100.00;98471.34;5138384;28;20131;-63
2023/01/01 05:50:06;;;;;;;14.82;8.63;;;;;;;7.32;100.00;98476.09;5138529;28;20141;-62
2023/01/01 05:52:32;;;;;;;17.25;8.90;;;;;;;7.49;100.00;98470.19;5138651;28;20057;-63
2023/01/01 05:54:59;;;;;;;14.23;8.18;;;;;;;7.51;100.00;98459.72;5138405;28;20047;-64
2023/01/01 05:57:27;;;;;;;16.40;8.98;;;;;;;7.53;100.00;98462.06;5138650;27;20137;-63
2023/01/01 05:59:53;;;;;;;12.73;7.85;;;;;;;7.28;100.00;98461.59;5138167;28;20066;-63
2023/01/01 06:02:20;;;;;;;13.27;8.05;;;;;;;7.52;100.00;98458.56;5138453;28;20133;-62
2023/01/01 06:04:46;;;;;;;13.38;8.18;;;;;;;7.41;100.00;98463.03;5138053;28;20412;-63
2023/01/01 06:07:13;;;;;;;14.65;8.05;;;;;;;7.24;100.00;98467.00;5138514;28;20427;-63
2023/01/01 06:09:39;;;;;;;16.17;8.50;;;;;;;7.23;100.00;98456.44;5138015;28;20428;-63
2023/01/01 06:12:06;;;;;;;17.45;8.40;;;;;;;7.17;100.00;98455.94;5138448;28;20048;-63
2023/01/01 06:14:33;;;;;;;14.82;8.23;;;;;;;7.03;100.00;98447.47;5137983;28;20061;-63
2023/01/01 06:16:59;;;;;;;11.60;7.65;;;;;;;7.09;100.00;98446.03;5137899;28;20100;-64
2023/01/01 06:19:26;;;;;;;14.68;7.35;;;;;;;7.06;100.00;98444.03;5137748;27;20062;-62
2023/01/01 06:21:52;;;;;;;14.13;8.18;;;;;;;7.06;100.00;98438.56;5138001;28;20107;-64
2023/01/01 06:24:18;;;;;;;15.02;8.15;;;;;;;7.15;100.00;98427.47;5138188;28;20057;-62
2023/01/01 06:26:45;;;;;;;17.05;8.45;;;;;;;6.92;100.00;98449.97;5137755;28;20051;-63
2023/01/01 06:29:11;;;;;;;16.10;7.97;;;;;;;7.03;100.00;98442.00;5138067;28;20396;-62
2023/01/01 06:31:37;;;;;;;16.80;8.50;;;;;;;6.99;100.00;98452.84;5137705;28;20059;-63
2023/01/01 06:34:04;;;;;;;19.77;9.23;;;;;;;7.07;100.00;98442.91;5138052;28;20051;-63
2023/01/01 06:36:31;;;;;;;14.02;8.00;;;;;;;6.74;100.00;98449.63;5137692;28;20051;-63
2023/01/01 06:38:58;;;;;;;17.17;8.32;;;;;;;6.84;100.00;98434.66;5138073;27;20082;-62
2023/01/01 06:41:26;;;;;;;15.65;8.02;;;;;;;6.95;100.00;98424.75;5137425;27;20151;-64
2023/01/01 06:43:54;;;;;;;17.15;8.68;;;;;;;7.01;100.00;98417.06;5137477;28;20051;-63
2023/01/01 06:46:22;;;;;;;14.27;8.02;;;;;;;6.84;100.00;98418.28;5137788;28;20051;-63
2023/01/01 06:48:52;;;;;;;14.98;8.00;;;;;;;6.96;100.00;98420.06;5137456;28;20047;-62
2023/01/01 06:51:20;;;;;;;12.02;7.47;;;;;;;7.04;100.00;98419.88;5137580;28;20055;-64
2023/01/01 06:53:49;;;;;;;17.17;8.45;;;;;;;6.83;100.00;98419.41;5137334;28;20082;-63
2023/01/01 06:56:16;;;;;;;14.50;8.38;;;;;;;6.70;100.00;98426.97;5137677;28;20397;-63
2023/01/01 06:58:42;;;;;;;16.48;8.88;;;;;;;6.82;100.00;98429.53;5137309;28;20504;-64
2023/01/01 07:01:11;;;;;;;15.18;8.30;;;;;;;6.95;100.00;98437.59;5137624;28;20150;-63
2023/01/01 07:03:38;;;;;;;14.27;9.27;;;;;;;7.00;100.00;98446.28;5137242;28;20099;-63
2023/01/01 07:06:05;;;;;;;17.00;9.27;;;;;;;6.99;100.00;98461.03;5137792;28;20050;-62
2023/01/01 07:08:31;;;;;;;16.73;9.00;;;;;;;7.11;100.00;98456.59;5137190;28;20412;-62
2023/01/01 07:10:58;;;;;;;17.38;8.40;;;;;;;7.20;100.00;98460.69;5137150;28;20066;-64
2023/01/01 07:13:25;;;;;;;15.27;9.23;;;;;;;7.01;100.00;98474.31;5137188;28;20055;-63
2023/01/01 07:15:51;;;;;;;16.55;8.80;;;;;;;7.22;100.00;98472.00;5137311;28;20043;-63
2023/01/01 07:18:18;;;;;;;14.10;8.32;;;;;;;6.89;100.00;98488.84;5137114;28;20143;-62
2023/01/01 07:20:48;;;;;;;14.93;9.15;;;;;;;7.03;100.00;98501.97;5136994;28;20062;-62
2023/01/01 07:23:14;;;;;;;21.98;9.25;;;;;;;7.33;100.00;98513.13;5137436;28;20047;-62
2023/01/01 07:25:41;;;;;;;17.63;8.55;;;;;;;6.92;100.00;98509.13;5136968;28;20062;-64
2023/01/01 07:28:08;;;;;;;16.13;8.25;;;;;;;6.83;100.00;98490.25;5137367;28;20425;-64
2023/01/01 07:30:34;;;;;;;17.00;9.30;;;;;;;7.23;100.00;98492.69;5138144;27;20047;-63
2023/01/01 07:33:00;;;;;;;17.67;10.13;;;;;;;7.11;100.00;98511.09;5141018;28;20057;-63
2023/01/01 07:35:26;;;;;;;15.73;8.75;;;;;;;7.39;100.00;98527.25;5140466;28;20051;-62
2023/01/01 07:37:53;;;;;;;17.48;8.68;;;;;;;7.28;100.00;98544.19;5140780;28;20111;-63
2023/01/01 07:40:19;;;;;;;16.85;8.85;;;;;;;7.14;100.00;98554.00;5140643;27;20073;-63
2023/01/01 07:42:45;;;;;;;16.80;8.40;;;;;;;7.30;100.00;98566.44;5140442;28;20453;-63
2023/01/01 07:45:12;;;;;;;19.75;9.55;;;;;;;7.44;100.00;98571.41;5140551;27;20051;-64
2023/01/01 07:47:39;;;;;;;11.57;7.55;;;;;;;7.39;100.00;98595.44;5140365;28;20043;-64
2023/01/01 07:50:05;;;;;;;13.52;7.50;;;;;;;7.65;100.00;98613.91;5140585;28;20070;-63
2023/01/01 07:52:31;;;;;;;17.77;8.15;;;;;;;7.40;100.00;98640.66;5140247;28;20133;-62
2023/01/01 07:54:58;;;;;;;13.30;7.38;;;;;;;7.46;100.00;98645.47;5140680;28;20107;-64
2023/01/01 07:57:24;;;;;;;15.95;8.32;;;;;;;7.45;100.00;98654.00;5140093;28;20058;-62
2023/01/01 07:59:50;;;;;;;17.27;8.60;;;;;;;7.75;100.00;98655.03;5140518;28;20095;-63
2023/01/01 08:02:17;;;;;;;14.52;8.32;;;;;;;8.11;100.00;98665.91;5140080;28;20069;-63
2023/01/01 08:04:43;;;;;;;14.68;7.93;;;;;;;7.95;100.00;98674.16;5140549;28;20078;-64
2023/01/01 08:07:09;;;;;;;13.90;7.63;;;;;;;8.13;100.00;98680.78;5140019;28;20047;-62
2023/01/01 08:09:36;;;;;;;13.30;7.15;;;;;;;8.14;100.00;98715.09;5140222;28;20115;-63
2023/01/01 08:12:02;;;;;;;12.25;7.53;;;;;;;8.16;100.00;98733.84;5140119;28;20477;-63
2023/01/01 08:14:28;;;;;;;15.77;8.23;;;;;;;8.17;100.00;98738.97;5140072;28;20047;-64
2023/01/01 08:16:54;;;;;;;13.65;7.97;;;;;;;8.20;100.00;98756.56;5140049;28;20051;-62
2023/01/01 08:19:21;;;;;;;15.82;7.43;;;;;;;8.17;100.00;98770.94;5139806;28;20053;-64
2023/01/01 08:21:47;;;;;;;12.13;6.72;;;;;;;8.69;100.00;98789.56;5140105;28;20070;-64
2023/01/01 08:24:14;;;;;;;12.75;7.22;;;;;;;8.77;100.00;98806.13;5139857;28;20047;-62
2023/01/01 08:26:40;;;;;;;12.75;7.10;;;;;;;8.82;100.00;98833.16;5140076;27;20076;-64
2023/01/01 08:29:06;;;;;;;12.73;6.35;;;;;;;8.79;100.00;98864.72;5139706;28;20059;-62
2023/01/01 08:31:33;;;;;;;15.20;6.95;;;;;;;8.43;100.00;98885.03;5139995;28;20055;-63
2023/01/01 08:33:59;;;;;;;14.32;6.78;;;;;;;8.56;100.00;98900.16;5139583;28;20134;-64
2023/01/01 08:36:26;;;;;;;15.68;7.38;;;;;;;8.55;100.00;98904.06;5139824;28;20058;-62
2023/01/01 08:38:52;;;;;;;13.90;7.65;;;;;;;8.55;100.00;98886.88;5139792;27;20051;-63
2023/01/01 08:41:18;;;;;;;13.75;7.20;;;;;;;8.52;100.00;98888.38;5139472;27;20331;-63
2023/01/01 08:43:44;;;;;;;12.75;7.45;;;;;;;8.41;100.00;98909.22;5139525;28;20051;-62
2023/01/01 08:46:11;;;;;;;15.68;7.22;;;;;;;8.47;100.00;98919.50;5139395;28;20081;-64
2023/01/01 08:48:37;;;;;;;15.48;6.95;;;;;;;8.30;100.00;98935.44;5139715;28;20058;-62
2023/01/01 08:51:03;;;;;;;11.80;7.28;;;;;;;8.32;100.00;98914.81;5139446;28;20062;-64
2023/01/01 08:53:31;;;;;;;14.10;7.45;;;;;;;8.40;100.00;98910.38;5139638;28;20050;-64
2023/01/01 08:55:58;;;;;;;16.85;7.80;;;;;;;8.36;100.00;98918.44;5139368;28;20112;-62
2023/01/01 08:58:25;;;;;;;13.60;6.93;;;;;;;8.50;100.00;98901.63;5139753;28;20100;-62
2023/01/01 09:00:52;;;;;;;14.27;7.80;;;;;;;8.12;100.00;98903.06;5139070;28;20079;-62
2023/01/01 09:03:18;;;;;;;15.00;7.80;;;;;;;8.11;100.00;98909.66;5139335;28;20047;-65
2023/01/01 09:05:45;;;;;;;15.07;6.75;;;;;;;8.12;100.00;98883.16;5139136;27;20104;-62
2023/01/01 09:08:11;;;;;;;12.45;6.57;;;;;;;8.31;100.00;98871.50;5139095;28;20058;-63
2023/01/01 09:10:38;;;;;;;14.07;7.18;;;;;;;8.19;100.00;98884.09;5139308;28;20419;-63
2023/01/01 09:13:05;;;;;;;15.93;7.20;;;;;;;8.31;100.00;98877.75;5139081;28;20100;-64
2023/01/01 09:15:31;;;;;;;13.02;7.03;;;;;;;8.34;100.00;98882.50;5139199;28;20061;-64
2023/01/01 09:17:57;;;;;;;15.73;6.35;;;;;;;8.19;100.00;98897.75;5138970;28;20420;-62
2023/01/01 09:20:23;;;;;;;12.43;6.78;;;;;;;8.36;100.00;98882.91;5139320;28;20104;-64
2023/01/01 09:22:50;;;;;;;15.02;6.97;;;;;;;8.72;100.00;98889.97;5138770;28;20424;-62
2023/01/01 09:25:16;;;;;;;11.98;6.32;;;;;;;8.56;100.00;98902.88;5138946;27;20047;-64
2023/01/01 09:27:43;;;;;;;14.82;6.30;;;;;;;8.33;100.00;98913.69;5138828;28;20047;-62
2023/01/01 09:30:10;;;;;;;13.32;6.55;;;;;;;8.64;100.00;98907.38;5139166;28;20058;-64
2023/01/01 09:32:36;;;;;;;14.23;6.25;;;;;;;8.39;100.00;98897.84;5138899;28;20054;-63
2023/01/01 09:35:03;;;;;;;18.27;7.38;;;;;;;8.21;100.00;98894.69;5138587;28;20408;-62
2023/01/01 09:37:30;;;;;;;11.90;6.57;;;;;;;8.25;100.00;98869.03;5138676;28;20047;-63
2023/01/01 09:39:56;;;;;;;16.52;6.68;;;;;;;8.30;100.00;98857.06;5138417;28;20046;-63
2023/01/01 09:42:31;;;;;;;14.32;6.85;;;;;;;8.74;100.00;98862.28;5138523;28;20051;-64
2023/01/01 09:45:12;;;;;;;14.05;6.80;;;;;;;8.88;100.00;98887.16;5138572;28;20047;-64
2023/01/01 09:47:41;;;;;;;14.82;6.75;;;;;;;8.74;100.00;98906.03;5138788;28;20087;-65
2023/01/01 09:50:14;;;;;;;14.93;6.82;;;;;;;8.57;100.00;98915.44;5138423;28;20082;-64
2023/01/01 09:52:45;;;;;;;12.30;6.05;;;;;;;8.81;100.00;98911.63;5138216;27;20377;-62
2023/01/01 09:55:19;;;;;;;9.30;6.07;;;;;;;9.30;100.00;98921.97;5138628;28;20047;-62
2023/01/01 09:57:45;;;;;;;12.50;6.53;;;;;;;9.49;100.00;98958.66;5138262;28;20462;-64
2023/01/01 10:00:16;;;;;;;13.95;6.00;;;;;;;9.79;100.00;98969.75;5138276;28;20055;-62
2023/01/01 10:02:53;;;;;;;15.90;5.70;;;;;;;9.60;100.00;98987.03;5138234;28;20051;-62
2023/01/01 10:05:30;;;;;;;8.80;5.30;;;;;;;9.66;100.00;98977.34;5138602;28;20050;-63
2023/01/01 10:08:07;;;;;;;14.50;5.07;;;;;;;9.45;100.00;98972.28;5138010;28;20149;-63
2023/01/01 10:10:39;;;;;;;9.35;5.65;;;;;;;9.35;100.00;98973.66;5138515;28;20176;-62
2023/01/01 10:13:18;;;;;;;13.80;5.88;;;;;;;9.24;100.00;98985.53;5137981;28;20051;-63
2023/01/01 10:15:54;;;;;;;13.55;6.20;;;;;;;9.58;100.00;98983.84;5138172;28;20057;-62
2023/01/01 10:18:25;;;;;;;10.32;5.63;;;;;;;9.65;100.00;98982.03;5138194;28;20054;-61
2023/01/01 10:21:01;;;;;;;11.13;6.00;;;;;;;9.70;100.00;98994.66;5137977;28;20082;-64
2023/01/01 10:23:32;;;;;;;11.82;5.45;;;;;;;9.64;100.00;98983.19;5138225;28;20106;-61
2023/01/01 10:26:05;;;;;;;11.82;5.72;;;;;;;9.49;100.00;98986.81;5137862;28;20047;-63
2023/01/01 10:28:39;;;;;;;13.27;5.95;;;;;;;9.31;100.00;98980.22;5138298;28;20251;-63
2023/01/01 10:31:15;;;;;;;10.37;5.17;;;;;;;9.54;100.00;98983.00;5138015;28;20047;-64
2023/01/01 10:33:42;;;;;;;11.55;5.35;;;;;;;9.95;100.00;98978.66;5137578;28;20054;-62
2023/01/01 10:36:12;;;;;;;11.60;5.50;;;;;;;9.60;100.00;98965.16;5137763;28;20051;-64
2023/01/01 10:38:39;;;;;;;10.50;5.80;;;;;;;9.93;100.00;98963.75;5137804;28;20051;-64
2023/01/01 10:41:08;;;;;;;11.85;5.72;;;;;;;9.97;100.00;98972.84;5137771;28;20061;-62
2023/01/01 10:43:35;;;;;;;10.85;4.93;;;;;;;9.49;100.00;98939.50;5137654;28;20142;-63
2023/01/01 10:46:03;;;;;;;9.40;5.03;;;;;;;9.96;100.00;98949.31;5137947;28;20074;-61
2023/01/01 10:48:30;;;;;;;12.52;6.03;;;;;;;9.92;100.00;98959.44;5137640;28;20051;-63
2023/01/01 10:50:58;;;;;;;9.05;5.38;;;;;;;9.92;100.00;98935.56;5137945;27;20145;-62
2023/01/01 10:53:28;;;;;;;11.00;6.00;;;;;;;9.46;100.00;98935.53;5137438;28;20193;-64
2023/01/01 10:56:04;;;;;;;10.80;5.50;;;;;;;9.68;100.00;98953.16;5137670;28;20404;-64
2023/01/01 10:58:37;;;;;;;11.98;5.53;;;;;;;9.31;100.00;98978.25;5137463;28;20396;-62
2023/01/01 11:01:05;;;;;;;8.45;4.90;;;;;;;9.80;100.00;98982.31;5137150;28;20059;-62
2023/01/01 11:03:33;;;;;;;12.77;5.97;;;;;;;9.75;100.00;98988.88;5137722;28;20047;-64
2023/01/01 11:06:05;;;;;;;11.90;5.63;;;;;;;9.83;100.00;98992.50;5135999;27;20058;-62
2023/01/01 11:08:34;;;;;;;12.60;5.75;;;;;;;9.71;100.00;98992.69;5137606;28;20047;-64
2023/01/01 11:11:02;;;;;;;12.20;5.13;;;;;;;9.95;100.00;98988.81;5137252;28;20343;-61
2023/01/01 11:13:29;;;;;;;13.98;5.63;;;;;;;9.49;100.00;98996.97;5137640;28;20047;-64
2023/01/01 11:15:56;;;;;;;17.73;5.95;;;;;;;9.29;100.00;99013.38;5137097;27;20054;-64
2023/01/01 11:18:26;;;;;;;10.68;5.18;;;;;;;9.75;100.00;99012.72;5137065;28;20062;-64
2023/01/01 11:20:55;;;;;;;11.73;5.28;;;;;;;9.79;100.00;99017.09;5137055;28;20057;-62
2023/01/01 11:23:30;;;;;;;11.85;5.32;;;;;;;9.69;100.00;99022.38;5136989;28;20150;-63
2023/01/01 11:26:03;;;;;;;12.38;5.70;;;;;;;9.97;100.00;99009.22;5137396;28;20047;-62
2023/01/01 11:28:30;;;;;;;11.18;5.70;;;;;;;9.86;100.00;98987.13;5136949;28;20054;-65
2023/01/01 11:31:06;;;;;;;12.95;5.45;;;;;;;10.00;100.00;98989.31;5137329;28;20055;-63